sensor_id;sensor_type;location;lat;lon;timestamp;temperature;humidity
28438;DHT22;15667;52.376;9.708;2023-05-07T06:18:10;9.90;99.90
28438;DHT22;15667;52.376;9.708;2023-05-07T06:20:37;10.00;99.90
28438;DHT22;15667;52.376;9.708;2023-05-07T06:23:31;10.00;99.90
28438;DHT22;15667;52.376;9.708;2023-05-07T06:26:26;10.00;99.90
28438;DHT22;15667;52.376;9.708;2023-05-07T06:29:11;9.90;99.90
28438;DHT22;15667;52.376;9.708;2023-05-07T06:32:12;10.00;99.90
28438;DHT22;15667;52.376;9.708;2023-05-07T06:34:38;10.10;99.90
28438;DHT22;15667;52.376;9.708;2023-05-07T06:37:04;10.10;99.90
28438;DHT22;15667;52.376;9.708;2023-05-07T06:39:30;10.20;99.90
28438;DHT22;15667;52.376;9.708;2023-05-07T06:41:55;10.20;99.90
28438;DHT22;15667;52.376;9.708;2023-05-07T06:44:21;10.30;99.90
28438;DHT22;15667;52.376;9.708;2023-05-07T06:46:46;10.30;99.90
28438;DHT22;15667;52.376;9.708;2023-05-07T06:49:12;10.40;99.90
28438;DHT22;15667;52.376;9.708;2023-05-07T06:51:38;10.40;99.90
28438;DHT22;15667;52.376;9.708;2023-05-07T06:54:04;10.80;99.90
28438;DHT22;15667;52.376;9.708;2023-05-07T06:56:32;10.30;99.90
28438;DHT22;15667;52.376;9.708;2023-05-07T06:58:59;11.30;99.90
28438;DHT22;15667;52.376;9.708;2023-05-07T07:01:25;10.60;99.90
28438;DHT22;15667;52.376;9.708;2023-05-07T07:03:50;10.50;99.90
28438;DHT22;15667;52.376;9.708;2023-05-07T07:06:16;10.60;99.90
28438;DHT22;15667;52.376;9.708;2023-05-07T07:08:42;10.70;99.90
28438;DHT22;15667;52.376;9.708;2023-05-07T07:11:07;11.60;99.90
28438;DHT22;15667;52.376;9.708;2023-05-07T07:13:39;10.70;99.90
28438;DHT22;15667;52.376;9.708;2023-05-07T07:16:08;10.80;99.90
28438;DHT22;15667;52.376;9.708;2023-05-07T07:18:34;10.90;99.90
28438;DHT22;15667;52.376;9.708;2023-05-07T07:20:59;12.20;99.90
28438;DHT22;15667;52.376;9.708;2023-05-07T07:23:25;11.10;99.90
28438;DHT22;15667;52.376;9.708;2023-05-07T07:25:50;11.10;99.90
28438;DHT22;15667;52.376;9.708;2023-05-07T07:28:16;11.00;99.90
28438;DHT22;15667;52.376;9.708;2023-05-07T07:30:42;11.10;99.90
28438;DHT22;15667;52.376;9.708;2023-05-07T07:33:08;11.10;99.90
28438;DHT22;15667;52.376;9.708;2023-05-07T07:35:34;11.20;99.90
28438;DHT22;15667;52.376;9.708;2023-05-07T07:38:00;11.30;99.90
28438;DHT22;15667;52.376;9.708;2023-05-07T07:40:26;11.20;99.90
28438;DHT22;15667;52.376;9.708;2023-05-07T07:42:52;11.10;99.90
28438;DHT22;15667;52.376;9.708;2023-05-07T07:45:18;11.30;99.90
28438;DHT22;15667;52.376;9.708;2023-05-07T07:47:43;11.30;99.90
28438;DHT22;15667;52.376;9.708;2023-05-07T07:50:09;11.40;99.90
28438;DHT22;15667;52.376;9.708;2023-05-07T07:52:34;11.60;99.90
28438;DHT22;15667;52.376;9.708;2023-05-07T07:55:00;11.70;99.90
28438;DHT22;15667;52.376;9.708;2023-05-07T07:57:26;11.90;99.90
28438;DHT22;15667;52.376;9.708;2023-05-07T07:59:52;11.50;99.90
28438;DHT22;15667;52.376;9.708;2023-05-07T08:02:17;11.50;99.90
28438;DHT22;15667;52.376;9.708;2023-05-07T08:04:43;11.60;99.90
28438;DHT22;15667;52.376;9.708;2023-05-07T08:07:09;11.60;99.90
28438;DHT22;15667;52.376;9.708;2023-05-07T08:09:35;11.90;99.90
28438;DHT22;15667;52.376;9.708;2023-05-07T08:12:00;11.90;99.90
28438;DHT22;15667;52.376;9.708;2023-05-07T08:14:28;11.80;99.90
28438;DHT22;15667;52.376;9.708;2023-05-07T08:16:54;11.90;99.90
28438;DHT22;15667;52.376;9.708;2023-05-07T08:19:23;12.00;99.90
28438;DHT22;15667;52.376;9.708;2023-05-07T08:21:48;12.00;99.90
28438;DHT22;15667;52.376;9.708;2023-05-07T08:24:14;12.60;99.90
28438;DHT22;15667;52.376;9.708;2023-05-07T08:26:40;12.70;99.90
28438;DHT22;15667;52.376;9.708;2023-05-07T08:29:05;11.60;99.90
28438;DHT22;15667;52.376;9.708;2023-05-07T08:31:31;12.10;99.90
28438;DHT22;15667;52.376;9.708;2023-05-07T08:33:59;11.60;99.90
28438;DHT22;15667;52.376;9.708;2023-05-07T08:36:25;11.70;99.90
28438;DHT22;15667;52.376;9.708;2023-05-07T08:38:51;11.90;99.90
28438;DHT22;15667;52.376;9.708;2023-05-07T08:41:16;11.80;99.90
28438;DHT22;15667;52.376;9.708;2023-05-07T08:43:44;11.90;99.90
28438;DHT22;15667;52.376;9.708;2023-05-07T08:46:13;12.00;99.90
28438;DHT22;15667;52.376;9.708;2023-05-07T08:48:43;12.10;99.90
28438;DHT22;15667;52.376;9.708;2023-05-07T08:51:12;12.40;99.90
28438;DHT22;15667;52.376;9.708;2023-05-07T08:53:38;12.00;99.90
28438;DHT22;15667;52.376;9.708;2023-05-07T08:56:05;12.00;99.90
28438;DHT22;15667;52.376;9.708;2023-05-07T08:58:31;11.80;99.90
28438;DHT22;15667;52.376;9.708;2023-05-07T09:00:56;11.80;99.90
28438;DHT22;15667;52.376;9.708;2023-05-07T09:03:22;12.40;99.90
28438;DHT22;15667;52.376;9.708;2023-05-07T09:05:48;11.90;99.90
28438;DHT22;15667;52.376;9.708;2023-05-07T09:08:14;12.60;99.90
28438;DHT22;15667;52.376;9.708;2023-05-07T09:10:40;11.70;99.90
28438;DHT22;15667;52.376;9.708;2023-05-07T09:13:05;11.90;99.90
28438;DHT22;15667;52.376;9.708;2023-05-07T09:15:31;12.20;99.90
28438;DHT22;15667;52.376;9.708;2023-05-07T09:18:00;12.10;99.90
28438;DHT22;15667;52.376;9.708;2023-05-07T09:20:26;12.10;99.90
28438;DHT22;15667;52.376;9.708;2023-05-07T09:22:52;12.30;99.90
28438;DHT22;15667;52.376;9.708;2023-05-07T09:25:30;12.40;99.90
28438;DHT22;15667;52.376;9.708;2023-05-07T09:27:56;12.30;99.90
28438;DHT22;15667;52.376;9.708;2023-05-07T09:30:21;12.30;99.90
28438;DHT22;15667;52.376;9.708;2023-05-07T09:32:47;12.20;99.90
28438;DHT22;15667;52.376;9.708;2023-05-07T09:35:16;12.10;99.90
28438;DHT22;15667;52.376;9.708;2023-05-07T09:37:42;12.10;99.90
28438;DHT22;15667;52.376;9.708;2023-05-07T09:40:07;11.80;99.90
28438;DHT22;15667;52.376;9.708;2023-05-07T09:42:34;11.80;99.90
28438;DHT22;15667;52.376;9.708;2023-05-07T09:44:59;13.00;99.90
28438;DHT22;15667;52.376;9.708;2023-05-07T09:47:28;11.90;99.90
28438;DHT22;15667;52.376;9.708;2023-05-07T09:49:57;12.00;99.90
28438;DHT22;15667;52.376;9.708;2023-05-07T09:52:24;12.30;99.90
28438;DHT22;15667;52.376;9.708;2023-05-07T09:54:53;12.10;99.90
28438;DHT22;15667;52.376;9.708;2023-05-07T09:57:20;12.10;99.90
28438;DHT22;15667;52.376;9.708;2023-05-07T09:59:46;12.10;99.90
28438;DHT22;15667;52.376;9.708;2023-05-07T10:02:12;12.00;99.90
28438;DHT22;15667;52.376;9.708;2023-05-07T10:04:39;13.00;99.90
28438;DHT22;15667;52.376;9.708;2023-05-07T10:07:05;12.10;99.90
28438;DHT22;15667;52.376;9.708;2023-05-07T10:09:32;12.10;99.90
28438;DHT22;15667;52.376;9.708;2023-05-07T10:11:57;12.20;99.90
28438;DHT22;15667;52.376;9.708;2023-05-07T10:14:23;12.10;99.90
28438;DHT22;15667;52.376;9.708;2023-05-07T10:16:49;12.40;99.90
28438;DHT22;15667;52.376;9.708;2023-05-07T10:19:15;13.30;99.90
28438;DHT22;15667;52.376;9.708;2023-05-07T10:21:44;12.70;99.90
28438;DHT22;15667;52.376;9.708;2023-05-07T10:24:10;12.70;99.90
28438;DHT22;15667;52.376;9.708;2023-05-07T10:26:43;12.60;99.90
28438;DHT22;15667;52.376;9.708;2023-05-07T10:34:33;13.00;99.90
28438;DHT22;15667;52.376;9.708;2023-05-07T10:37:00;12.90;99.90
28438;DHT22;15667;52.376;9.708;2023-05-07T10:39:25;12.90;99.90
28438;DHT22;15667;52.376;9.708;2023-05-07T10:41:51;13.00;99.90
28438;DHT22;15667;52.376;9.708;2023-05-07T10:44:26;13.10;99.90
28438;DHT22;15667;52.376;9.708;2023-05-07T10:47:03;13.00;99.90
28438;DHT22;15667;52.376;9.708;2023-05-07T10:49:29;12.90;99.90
28438;DHT22;15667;52.376;9.708;2023-05-07T10:52:11;13.40;99.90
28438;DHT22;15667;52.376;9.708;2023-05-07T10:54:37;13.10;99.90
28438;DHT22;15667;52.376;9.708;2023-05-07T10:59:48;13.00;99.90
28438;DHT22;15667;52.376;9.708;2023-05-07T11:02:14;13.10;99.90
28438;DHT22;15667;52.376;9.708;2023-05-07T11:04:40;13.30;99.90
28438;DHT22;15667;52.376;9.708;2023-05-07T11:15:38;13.30;99.90
28438;DHT22;15667;52.376;9.708;2023-05-07T11:18:14;12.30;99.90
28438;DHT22;15667;52.376;9.708;2023-05-07T11:20:56;13.30;99.90
28438;DHT22;15667;52.376;9.708;2023-05-07T11:26:09;13.20;99.90
28438;DHT22;15667;52.376;9.708;2023-05-07T11:28:43;13.20;99.90
28438;DHT22;15667;52.376;9.708;2023-05-07T11:31:09;13.10;99.90
28438;DHT22;15667;52.376;9.708;2023-05-07T11:33:34;13.60;99.90
28438;DHT22;15667;52.376;9.708;2023-05-07T11:36:01;14.00;99.90
28438;DHT22;15667;52.376;9.708;2023-05-07T11:38:28;14.40;99.90
28438;DHT22;15667;52.376;9.708;2023-05-07T11:40:57;13.50;99.90
28438;DHT22;15667;52.376;9.708;2023-05-07T11:43:24;13.50;99.90
28438;DHT22;15667;52.376;9.708;2023-05-07T11:45:49;13.90;99.90
28438;DHT22;15667;52.376;9.708;2023-05-07T11:48:15;14.20;99.90
28438;DHT22;15667;52.376;9.708;2023-05-07T11:53:39;14.10;99.90
28438;DHT22;15667;52.376;9.708;2023-05-07T11:56:06;14.00;99.90
28438;DHT22;15667;52.376;9.708;2023-05-07T11:58:31;14.20;99.90
28438;DHT22;15667;52.376;9.708;2023-05-07T12:00:57;13.60;99.90
28438;DHT22;15667;52.376;9.708;2023-05-07T12:03:22;13.90;99.90
28438;DHT22;15667;52.376;9.708;2023-05-07T12:05:48;14.00;99.90
28438;DHT22;15667;52.376;9.708;2023-05-07T12:08:14;13.60;99.90
28438;DHT22;15667;52.376;9.708;2023-05-07T12:10:43;13.90;99.90
28438;DHT22;15667;52.376;9.708;2023-05-07T12:13:18;13.60;99.90
28438;DHT22;15667;52.376;9.708;2023-05-07T12:15:44;13.80;99.90
28438;DHT22;15667;52.376;9.708;2023-05-07T12:18:10;13.50;99.90
28438;DHT22;15667;52.376;9.708;2023-05-07T12:20:36;13.60;99.90
28438;DHT22;15667;52.376;9.708;2023-05-07T12:23:02;13.70;99.90
28438;DHT22;15667;52.376;9.708;2023-05-07T12:25:37;13.90;99.90
28438;DHT22;15667;52.376;9.708;2023-05-07T12:28:03;13.90;99.90
28438;DHT22;15667;52.376;9.708;2023-05-07T12:30:38;14.00;99.90
28438;DHT22;15667;52.376;9.708;2023-05-07T12:33:03;14.00;99.90
28438;DHT22;15667;52.376;9.708;2023-05-07T12:35:29;14.30;99.90
28438;DHT22;15667;52.376;9.708;2023-05-07T12:37:55;14.10;99.90
28438;DHT22;15667;52.376;9.708;2023-05-07T12:40:21;14.00;99.90
28438;DHT22;15667;52.376;9.708;2023-05-07T12:42:46;13.80;99.90
28438;DHT22;15667;52.376;9.708;2023-05-07T12:45:17;13.90;99.90
28438;DHT22;15667;52.376;9.708;2023-05-07T12:47:46;13.80;99.90
28438;DHT22;15667;52.376;9.708;2023-05-07T12:50:12;13.80;99.90
28438;DHT22;15667;52.376;9.708;2023-05-07T12:52:38;13.60;99.90
28438;DHT22;15667;52.376;9.708;2023-05-07T12:55:04;13.90;99.90
28438;DHT22;15667;52.376;9.708;2023-05-07T12:57:30;14.00;99.90
28438;DHT22;15667;52.376;9.708;2023-05-07T12:59:57;14.20;99.90
28438;DHT22;15667;52.376;9.708;2023-05-07T13:02:31;14.00;99.90
28438;DHT22;15667;52.376;9.708;2023-05-07T13:04:57;14.10;99.90
28438;DHT22;15667;52.376;9.708;2023-05-07T13:07:24;14.30;99.90
28438;DHT22;15667;52.376;9.708;2023-05-07T13:09:50;14.20;99.90
28438;DHT22;15667;52.376;9.708;2023-05-07T13:12:15;14.30;99.90
28438;DHT22;15667;52.376;9.708;2023-05-07T13:14:41;14.60;99.90
28438;DHT22;15667;52.376;9.708;2023-05-07T13:17:06;14.60;99.90
28438;DHT22;15667;52.376;9.708;2023-05-07T13:22:39;14.90;99.90
28438;DHT22;15667;52.376;9.708;2023-05-07T13:31:51;15.80;99.90
28438;DHT22;15667;52.376;9.708;2023-05-07T13:55:33;17.60;99.90
28438;DHT22;15667;52.376;9.708;2023-05-07T14:05:12;17.30;99.90
28438;DHT22;15667;52.376;9.708;2023-05-07T14:08:31;17.10;99.90
28438;DHT22;15667;52.376;9.708;2023-05-07T14:11:38;17.30;99.90
28438;DHT22;15667;52.376;9.708;2023-05-07T14:14:05;17.70;99.90
28438;DHT22;15667;52.376;9.708;2023-05-07T14:16:30;18.00;99.90
28438;DHT22;15667;52.376;9.708;2023-05-07T14:18:56;17.90;99.90
28438;DHT22;15667;52.376;9.708;2023-05-07T14:21:24;18.00;99.90
28438;DHT22;15667;52.376;9.708;2023-05-07T14:23:50;18.00;99.90
28438;DHT22;15667;52.376;9.708;2023-05-07T14:26:16;18.00;99.90
28438;DHT22;15667;52.376;9.708;2023-05-07T14:28:41;17.00;99.90
28438;DHT22;15667;52.376;9.708;2023-05-07T14:31:11;16.80;99.90
28438;DHT22;15667;52.376;9.708;2023-05-07T14:33:37;16.70;99.90
28438;DHT22;15667;52.376;9.708;2023-05-07T14:36:02;16.80;99.90
28438;DHT22;15667;52.376;9.708;2023-05-07T14:38:28;17.20;99.90
28438;DHT22;15667;52.376;9.708;2023-05-07T14:40:54;17.80;99.90
28438;DHT22;15667;52.376;9.708;2023-05-07T14:43:21;17.30;99.90
28438;DHT22;15667;52.376;9.708;2023-05-07T14:45:47;17.00;99.90
28438;DHT22;15667;52.376;9.708;2023-05-07T14:48:12;16.30;99.90
28438;DHT22;15667;52.376;9.708;2023-05-07T14:50:40;16.80;99.90
28438;DHT22;15667;52.376;9.708;2023-05-07T14:53:06;17.60;99.90
28438;DHT22;15667;52.376;9.708;2023-05-07T14:55:31;16.80;99.90
28438;DHT22;15667;52.376;9.708;2023-05-07T14:57:57;16.30;99.90
28438;DHT22;15667;52.376;9.708;2023-05-07T15:00:22;15.90;99.90
28438;DHT22;15667;52.376;9.708;2023-05-07T15:02:48;15.40;99.90
28438;DHT22;15667;52.376;9.708;2023-05-07T15:05:13;15.60;99.90
28438;DHT22;15667;52.376;9.708;2023-05-07T15:07:40;15.70;99.90
28438;DHT22;15667;52.376;9.708;2023-05-07T15:10:08;16.50;99.90
28438;DHT22;15667;52.376;9.708;2023-05-07T15:12:34;16.60;99.90
28438;DHT22;15667;52.376;9.708;2023-05-07T15:14:59;16.80;99.90
28438;DHT22;15667;52.376;9.708;2023-05-07T15:17:25;16.60;99.90
28438;DHT22;15667;52.376;9.708;2023-05-07T15:19:51;16.80;99.90
28438;DHT22;15667;52.376;9.708;2023-05-07T15:22:17;16.40;99.90
28438;DHT22;15667;52.376;9.708;2023-05-07T15:24:42;16.20;99.90
28438;DHT22;15667;52.376;9.708;2023-05-07T15:27:09;16.10;99.90
28438;DHT22;15667;52.376;9.708;2023-05-07T15:29:35;16.00;99.90
28438;DHT22;15667;52.376;9.708;2023-05-07T15:32:00;15.70;99.90
28438;DHT22;15667;52.376;9.708;2023-05-07T15:34:26;15.60;99.90
28438;DHT22;15667;52.376;9.708;2023-05-07T15:36:52;15.70;99.90
28438;DHT22;15667;52.376;9.708;2023-05-07T15:39:18;15.60;99.90
28438;DHT22;15667;52.376;9.708;2023-05-07T15:41:43;15.50;99.90
28438;DHT22;15667;52.376;9.708;2023-05-07T15:44:09;15.60;99.90
28438;DHT22;15667;52.376;9.708;2023-05-07T15:46:35;15.20;99.90
28438;DHT22;15667;52.376;9.708;2023-05-07T15:49:01;15.10;99.90
28438;DHT22;15667;52.376;9.708;2023-05-07T15:51:27;14.80;99.90
28438;DHT22;15667;52.376;9.708;2023-05-07T15:54:01;15.00;99.90
28438;DHT22;15667;52.376;9.708;2023-05-07T16:03:09;14.60;99.90
28438;DHT22;15667;52.376;9.708;2023-05-07T16:09:17;14.30;99.90
28438;DHT22;15667;52.376;9.708;2023-05-07T16:24:37;13.80;99.90
28438;DHT22;15667;52.376;9.708;2023-05-07T16:27:02;14.60;99.90
28438;DHT22;15667;52.376;9.708;2023-05-07T16:29:28;13.70;99.90
28438;DHT22;15667;52.376;9.708;2023-05-07T16:31:53;14.40;99.90
28438;DHT22;15667;52.376;9.708;2023-05-07T16:34:19;14.40;99.90
28438;DHT22;15667;52.376;9.708;2023-05-07T16:36:45;13.90;99.90
28438;DHT22;15667;52.376;9.708;2023-05-07T16:39:11;13.60;99.90
28438;DHT22;15667;52.376;9.708;2023-05-07T16:41:37;13.50;99.90
28438;DHT22;15667;52.376;9.708;2023-05-07T16:44:02;13.50;99.90
28438;DHT22;15667;52.376;9.708;2023-05-07T16:46:28;13.40;99.90
28438;DHT22;15667;52.376;9.708;2023-05-07T16:49:03;13.40;99.90
28438;DHT22;15667;52.376;9.708;2023-05-07T16:51:29;13.50;99.90
28438;DHT22;15667;52.376;9.708;2023-05-07T16:53:54;13.40;99.90
28438;DHT22;15667;52.376;9.708;2023-05-07T16:56:19;13.40;99.90
28438;DHT22;15667;52.376;9.708;2023-05-07T16:58:46;13.30;99.90
28438;DHT22;15667;52.376;9.708;2023-05-07T17:01:11;13.40;99.90
28438;DHT22;15667;52.376;9.708;2023-05-07T17:03:38;13.40;99.90
28438;DHT22;15667;52.376;9.708;2023-05-07T17:06:04;13.30;99.90
28438;DHT22;15667;52.376;9.708;2023-05-07T17:08:37;13.30;99.90
28438;DHT22;15667;52.376;9.708;2023-05-07T17:11:02;13.60;99.90
28438;DHT22;15667;52.376;9.708;2023-05-07T17:13:28;13.20;99.90
28438;DHT22;15667;52.376;9.708;2023-05-07T17:15:53;13.20;99.90
28438;DHT22;15667;52.376;9.708;2023-05-07T17:18:19;13.20;99.90
28438;DHT22;15667;52.376;9.708;2023-05-07T17:20:45;13.10;99.90
28438;DHT22;15667;52.376;9.708;2023-05-07T17:23:10;13.10;99.90
28438;DHT22;15667;52.376;9.708;2023-05-07T17:25:36;13.80;99.90
28438;DHT22;15667;52.376;9.708;2023-05-07T17:28:02;13.20;99.90
28438;DHT22;15667;52.376;9.708;2023-05-07T17:30:27;13.00;99.90
28438;DHT22;15667;52.376;9.708;2023-05-07T17:32:53;13.90;99.90
28438;DHT22;15667;52.376;9.708;2023-05-07T17:35:20;12.90;99.90
28438;DHT22;15667;52.376;9.708;2023-05-07T17:37:45;12.90;99.90
28438;DHT22;15667;52.376;9.708;2023-05-07T17:40:11;12.80;99.90
28438;DHT22;15667;52.376;9.708;2023-05-07T17:42:36;12.80;99.90
28438;DHT22;15667;52.376;9.708;2023-05-07T17:45:02;13.80;99.90
28438;DHT22;15667;52.376;9.708;2023-05-07T17:47:27;12.50;99.90
28438;DHT22;15667;52.376;9.708;2023-05-07T17:49:53;12.60;99.90
28438;DHT22;15667;52.376;9.708;2023-05-07T17:52:18;13.50;99.90
28438;DHT22;15667;52.376;9.708;2023-05-07T17:54:44;12.60;99.90
28438;DHT22;15667;52.376;9.708;2023-05-07T17:57:09;12.50;99.90
28438;DHT22;15667;52.376;9.708;2023-05-07T17:59:35;13.50;99.90
28438;DHT22;15667;52.376;9.708;2023-05-07T18:02:01;12.40;99.90
28438;DHT22;15667;52.376;9.708;2023-05-07T18:04:26;12.60;99.90
28438;DHT22;15667;52.376;9.708;2023-05-07T18:06:52;12.60;99.90
28438;DHT22;15667;52.376;9.708;2023-05-07T18:09:17;12.50;99.90
28438;DHT22;15667;52.376;9.708;2023-05-07T18:11:43;12.40;99.90
28438;DHT22;15667;52.376;9.708;2023-05-07T18:14:09;13.30;99.90
28438;DHT22;15667;52.376;9.708;2023-05-07T18:16:34;13.40;99.90
28438;DHT22;15667;52.376;9.708;2023-05-07T18:19:00;12.30;99.90
28438;DHT22;15667;52.376;9.708;2023-05-07T18:21:26;12.40;99.90
28438;DHT22;15667;52.376;9.708;2023-05-07T18:23:52;12.30;99.90
28438;DHT22;15667;52.376;9.708;2023-05-07T18:26:18;12.50;99.90
28438;DHT22;15667;52.376;9.708;2023-05-07T18:28:43;12.30;99.90
28438;DHT22;15667;52.376;9.708;2023-05-07T18:31:10;11.50;99.90
28438;DHT22;15667;52.376;9.708;2023-05-07T18:33:36;12.30;99.90
28438;DHT22;15667;52.376;9.708;2023-05-07T18:36:03;11.90;99.90
28438;DHT22;15667;52.376;9.708;2023-05-07T18:38:32;12.10;99.90
28438;DHT22;15667;52.376;9.708;2023-05-07T18:41:02;12.20;99.90
28438;DHT22;15667;52.376;9.708;2023-05-07T18:43:27;12.10;99.90
28438;DHT22;15667;52.376;9.708;2023-05-07T18:45:53;12.20;99.90
28438;DHT22;15667;52.376;9.708;2023-05-07T18:48:19;12.00;99.90
28438;DHT22;15667;52.376;9.708;2023-05-07T18:50:44;11.90;99.90
28438;DHT22;15667;52.376;9.708;2023-05-07T18:53:10;12.40;99.90
28438;DHT22;15667;52.376;9.708;2023-05-07T18:55:36;11.40;99.90
28438;DHT22;15667;52.376;9.708;2023-05-07T18:58:02;11.80;99.90
28438;DHT22;15667;52.376;9.708;2023-05-07T19:00:28;11.80;99.90
28438;DHT22;15667;52.376;9.708;2023-05-07T19:02:53;12.50;99.90
28438;DHT22;15667;52.376;9.708;2023-05-07T19:05:19;11.10;99.90
28438;DHT22;15667;52.376;9.708;2023-05-07T19:07:47;11.80;99.90
28438;DHT22;15667;52.376;9.708;2023-05-07T19:10:16;12.30;99.90
28438;DHT22;15667;52.376;9.708;2023-05-07T19:12:42;11.40;99.90
28438;DHT22;15667;52.376;9.708;2023-05-07T19:15:07;11.80;99.90
28438;DHT22;15667;52.376;9.708;2023-05-07T19:17:33;11.80;99.90
28438;DHT22;15667;52.376;9.708;2023-05-07T19:20:10;11.70;99.90
28438;DHT22;15667;52.376;9.708;2023-05-07T19:22:36;11.60;99.90
28438;DHT22;15667;52.376;9.708;2023-05-07T19:25:02;15.00;99.90
28438;DHT22;15667;52.376;9.708;2023-05-07T19:27:28;10.10;99.90
28438;DHT22;15667;52.376;9.708;2023-05-07T19:29:53;11.80;99.90
28438;DHT22;15667;52.376;9.708;2023-05-07T19:32:19;12.70;99.90
28438;DHT22;15667;52.376;9.708;2023-05-07T19:34:45;12.70;99.90
28438;DHT22;15667;52.376;9.708;2023-05-07T19:37:11;11.60;99.90
28438;DHT22;15667;52.376;9.708;2023-05-07T19:39:36;11.90;99.90
28438;DHT22;15667;52.376;9.708;2023-05-07T19:42:02;11.60;99.90
28438;DHT22;15667;52.376;9.708;2023-05-07T19:44:27;11.50;99.90
28438;DHT22;15667;52.376;9.708;2023-05-07T19:46:53;11.70;99.90
28438;DHT22;15667;52.376;9.708;2023-05-07T19:49:19;11.40;99.90
28438;DHT22;15667;52.376;9.708;2023-05-07T19:51:45;11.50;99.90
28438;DHT22;15667;52.376;9.708;2023-05-07T19:54:10;11.50;99.90
28438;DHT22;15667;52.376;9.708;2023-05-07T19:56:36;11.50;99.90
28438;DHT22;15667;52.376;9.708;2023-05-07T19:59:01;12.30;99.90
28438;DHT22;15667;52.376;9.708;2023-05-07T20:01:27;14.40;99.90
28438;DHT22;15667;52.376;9.708;2023-05-07T20:03:53;11.80;99.90
28438;DHT22;15667;52.376;9.708;2023-05-07T20:06:18;11.70;99.90
28438;DHT22;15667;52.376;9.708;2023-05-07T20:08:44;11.50;99.90
28438;DHT22;15667;52.376;9.708;2023-05-07T20:11:10;12.00;99.90
28438;DHT22;15667;52.376;9.708;2023-05-07T20:13:38;10.20;99.90
28438;DHT22;15667;52.376;9.708;2023-05-07T20:16:04;13.60;99.90
28438;DHT22;15667;52.376;9.708;2023-05-07T20:18:31;13.70;99.90
28438;DHT22;15667;52.376;9.708;2023-05-07T20:20:57;11.40;99.90
28438;DHT22;15667;52.376;9.708;2023-05-07T20:23:23;13.60;99.90
28438;DHT22;15667;52.376;9.708;2023-05-07T20:25:48;11.40;99.90
28438;DHT22;15667;52.376;9.708;2023-05-07T20:28:17;11.30;99.90
28438;DHT22;15667;52.376;9.708;2023-05-07T20:30:42;11.20;99.90
28438;DHT22;15667;52.376;9.708;2023-05-07T20:33:08;11.20;99.90
28438;DHT22;15667;52.376;9.708;2023-05-07T20:35:33;11.20;99.90
28438;DHT22;15667;52.376;9.708;2023-05-07T20:37:59;12.30;99.90
28438;DHT22;15667;52.376;9.708;2023-05-07T20:40:24;12.70;99.90
28438;DHT22;15667;52.376;9.708;2023-05-07T20:42:54;11.20;99.90
28438;DHT22;15667;52.376;9.708;2023-05-07T20:47:46;11.10;99.90
28438;DHT22;15667;52.376;9.708;2023-05-07T20:50:12;10.70;99.90
28438;DHT22;15667;52.376;9.708;2023-05-07T20:52:37;11.30;99.90
28438;DHT22;15667;52.376;9.708;2023-05-07T20:55:04;11.30;99.90
28438;DHT22;15667;52.376;9.708;2023-05-07T20:57:30;11.50;99.90
28438;DHT22;15667;52.376;9.708;2023-05-07T20:59:56;12.30;99.90
28438;DHT22;15667;52.376;9.708;2023-05-07T21:02:22;11.00;99.90
28438;DHT22;15667;52.376;9.708;2023-05-07T21:04:47;12.30;99.90
28438;DHT22;15667;52.376;9.708;2023-05-07T21:07:15;11.80;99.90
28438;DHT22;15667;52.376;9.708;2023-05-07T21:09:41;11.00;99.90
28438;DHT22;15667;52.376;9.708;2023-05-07T21:12:06;11.00;99.90
28438;DHT22;15667;52.376;9.708;2023-05-07T21:14:32;11.20;99.90
28438;DHT22;15667;52.376;9.708;2023-05-07T21:17:00;13.20;99.90
28438;DHT22;15667;52.376;9.708;2023-05-07T21:19:26;10.90;99.90
28438;DHT22;15667;52.376;9.708;2023-05-07T21:21:52;11.00;99.90
28438;DHT22;15667;52.376;9.708;2023-05-07T21:24:22;11.00;99.90
28438;DHT22;15667;52.376;9.708;2023-05-07T21:26:47;13.70;99.90
28438;DHT22;15667;52.376;9.708;2023-05-07T21:29:13;14.20;99.90
28438;DHT22;15667;52.376;9.708;2023-05-07T21:31:39;11.10;99.90
28438;DHT22;15667;52.376;9.708;2023-05-07T21:34:04;10.70;99.90
28438;DHT22;15667;52.376;9.708;2023-05-07T21:36:32;10.70;99.90
28438;DHT22;15667;52.376;9.708;2023-05-07T21:38:57;8.60;99.90
28438;DHT22;15667;52.376;9.708;2023-05-07T21:41:23;11.40;99.90
28438;DHT22;15667;52.376;9.708;2023-05-07T21:43:49;10.60;99.90
28438;DHT22;15667;52.376;9.708;2023-05-07T21:46:15;10.70;99.90
28438;DHT22;15667;52.376;9.708;2023-05-07T21:48:41;10.60;99.90
28438;DHT22;15667;52.376;9.708;2023-05-07T21:51:06;10.60;99.90
28438;DHT22;15667;52.376;9.708;2023-05-07T21:53:32;10.70;99.90
28438;DHT22;15667;52.376;9.708;2023-05-07T21:55:58;10.40;99.90
28438;DHT22;15667;52.376;9.708;2023-05-07T21:58:24;13.00;99.90
28438;DHT22;15667;52.376;9.708;2023-05-07T22:00:50;13.10;99.90
28438;DHT22;15667;52.376;9.708;2023-05-07T22:03:16;11.60;99.90
28438;DHT22;15667;52.376;9.708;2023-05-07T22:05:41;10.50;99.90
28438;DHT22;15667;52.376;9.708;2023-05-07T22:08:07;10.60;99.90
28438;DHT22;15667;52.376;9.708;2023-05-07T22:10:33;10.30;99.90
28438;DHT22;15667;52.376;9.708;2023-05-07T22:12:58;10.30;99.90
28438;DHT22;15667;52.376;9.708;2023-05-07T22:15:24;13.10;99.90
28438;DHT22;15667;52.376;9.708;2023-05-07T22:17:49;10.30;99.90
28438;DHT22;15667;52.376;9.708;2023-05-07T22:20:15;10.50;99.90
28438;DHT22;15667;52.376;9.708;2023-05-07T22:22:44;10.40;99.90
28438;DHT22;15667;52.376;9.708;2023-05-07T22:25:10;10.40;99.90
28438;DHT22;15667;52.376;9.708;2023-05-07T22:27:36;10.40;99.90
28438;DHT22;15667;52.376;9.708;2023-05-07T22:30:01;10.30;99.90
28438;DHT22;15667;52.376;9.708;2023-05-07T22:32:30;9.20;99.90
28438;DHT22;15667;52.376;9.708;2023-05-07T22:34:55;11.10;99.90
28438;DHT22;15667;52.376;9.708;2023-05-07T22:37:21;10.60;99.90
28438;DHT22;15667;52.376;9.708;2023-05-07T22:39:46;9.80;99.90
28438;DHT22;15667;52.376;9.708;2023-05-07T22:42:12;10.20;99.90
28438;DHT22;15667;52.376;9.708;2023-05-07T22:44:38;10.40;99.90
28438;DHT22;15667;52.376;9.708;2023-05-07T22:47:03;11.70;99.90
28438;DHT22;15667;52.376;9.708;2023-05-07T22:49:29;10.10;99.90
28438;DHT22;15667;52.376;9.708;2023-05-07T22:51:55;11.10;99.90
28438;DHT22;15667;52.376;9.708;2023-05-07T22:54:20;12.80;99.90
28438;DHT22;15667;52.376;9.708;2023-05-07T22:56:46;10.00;99.90
28438;DHT22;15667;52.376;9.708;2023-05-07T22:59:11;11.80;99.90
28438;DHT22;15667;52.376;9.708;2023-05-07T23:01:37;11.40;99.90
28438;DHT22;15667;52.376;9.708;2023-05-07T23:04:03;9.90;99.90
28438;DHT22;15667;52.376;9.708;2023-05-07T23:06:29;9.90;99.90
28438;DHT22;15667;52.376;9.708;2023-05-07T23:08:57;10.20;99.90
28438;DHT22;15667;52.376;9.708;2023-05-07T23:11:23;10.30;99.90